createdAt,value
2023-05-02T00:01:54.719Z,6.37
2023-05-02T00:04:21.802Z,6.57
2023-05-02T00:06:48.193Z,7.47
2023-05-02T00:09:15.602Z,6.83
2023-05-02T00:11:42.134Z,7.30
2023-05-02T00:14:08.471Z,6.97
2023-05-02T00:16:34.863Z,6.50
2023-05-02T00:19:01.185Z,6.83
2023-05-02T00:21:29.178Z,6.33
2023-05-02T00:23:56.970Z,7.20
2023-05-02T00:26:23.768Z,6.20
2023-05-02T00:28:50.220Z,6.83
2023-05-02T00:31:16.969Z,7.07
2023-05-02T00:33:43.293Z,8.63
2023-05-02T00:36:16.647Z,7.80
2023-05-02T00:38:43.050Z,9.30
2023-05-02T00:41:09.400Z,9.47
2023-05-02T00:43:36.624Z,10.03
2023-05-02T00:46:03.554Z,9.00
2023-05-02T00:48:30.200Z,8.77
2023-05-02T00:50:57.333Z,8.90
2023-05-02T00:53:23.694Z,7.87
2023-05-02T00:55:50.347Z,8.70
2023-05-02T00:58:19.430Z,8.57
2023-05-02T01:01:04.801Z,8.43
2023-05-02T01:03:51.942Z,8.13
2023-05-02T01:06:24.548Z,9.53
2023-05-02T01:08:58.514Z,8.90
2023-05-02T01:11:39.807Z,9.10
2023-05-02T01:14:11.305Z,9.07
2023-05-02T01:16:42.053Z,9.80
2023-05-02T01:19:25.257Z,9.57
2023-05-02T01:21:53.497Z,10.10
2023-05-02T01:24:26.297Z,10.87
2023-05-02T01:27:06.371Z,10.47
2023-05-02T01:29:33.246Z,11.27
2023-05-02T01:32:03.001Z,12.13
2023-05-02T01:34:31.626Z,15.23
2023-05-02T01:36:59.300Z,14.50
2023-05-02T01:39:26.161Z,14.73
2023-05-02T01:41:56.555Z,13.87
2023-05-02T01:44:24.919Z,11.70
2023-05-02T01:46:53.184Z,12.30
2023-05-02T01:49:20.855Z,13.73
2023-05-02T01:51:49.077Z,14.37
2023-05-02T01:54:17.717Z,14.37
2023-05-02T01:56:45.547Z,15.93
2023-05-02T01:59:18.206Z,16.33
2023-05-02T02:01:45.871Z,16.40
2023-05-02T02:04:15.052Z,16.17
2023-05-02T02:06:47.192Z,16.97
2023-05-02T02:09:14.444Z,17.23
2023-05-02T02:11:49.205Z,17.30
2023-05-02T02:14:21.853Z,18.30
2023-05-02T02:16:53.345Z,17.87
2023-05-02T02:19:21.188Z,18.37
2023-05-02T02:21:48.849Z,18.53
2023-05-02T02:24:17.345Z,18.90
2023-05-02T02:26:43.924Z,18.73
2023-05-02T02:29:10.323Z,19.30
2023-05-02T02:31:39.029Z,19.47
2023-05-02T02:34:06.180Z,17.97
2023-05-02T02:36:39.136Z,18.93
2023-05-02T02:39:08.449Z,21.93
2023-05-02T02:41:43.332Z,22.77
2023-05-02T02:44:31.977Z,22.63
2023-05-02T02:47:09.565Z,22.60
2023-05-02T02:49:38.497Z,23.83
2023-05-02T02:52:42.395Z,23.43
2023-05-02T02:55:29.589Z,23.17
2023-05-02T02:58:03.967Z,23.73
2023-05-02T03:00:32.648Z,23.50
2023-05-02T03:02:59.078Z,24.80
2023-05-02T03:05:25.883Z,24.57
2023-05-02T03:07:52.594Z,24.40
2023-05-02T03:10:19.056Z,24.03
2023-05-02T03:12:45.505Z,23.80
2023-05-02T03:16:05.405Z,24.33
2023-05-02T03:18:31.765Z,24.37
2023-05-02T03:20:58.079Z,24.37
2023-05-02T03:23:24.604Z,26.03
2023-05-02T03:25:51.252Z,23.33
2023-05-02T03:28:17.600Z,26.67
2023-05-02T03:30:43.977Z,25.97
2023-05-02T03:33:10.434Z,26.57
2023-05-02T03:35:36.838Z,26.47
2023-05-02T03:38:03.197Z,26.30
2023-05-02T03:40:29.549Z,25.27
2023-05-02T03:42:56.003Z,25.93
2023-05-02T03:45:22.315Z,25.70
2023-05-02T03:47:48.614Z,26.03
2023-05-02T03:50:14.982Z,27.10
2023-05-02T03:52:41.649Z,26.57
2023-05-02T03:55:08.139Z,27.53
2023-05-02T03:57:34.525Z,24.20
2023-05-02T04:00:01.151Z,26.07
2023-05-02T04:02:27.912Z,25.53
2023-05-02T04:04:54.348Z,26.27
2023-05-02T04:07:20.991Z,25.33
2023-05-02T04:09:47.280Z,26.20
2023-05-02T04:12:15.396Z,27.07
2023-05-02T04:14:41.796Z,27.73
2023-05-02T04:17:08.301Z,28.60
2023-05-02T04:19:35.162Z,27.20
2023-05-02T04:22:04.359Z,27.73
2023-05-02T04:24:30.848Z,29.10
2023-05-02T04:26:57.212Z,28.37
2023-05-02T04:29:23.550Z,29.57
2023-05-02T04:31:51.071Z,31.10
2023-05-02T04:34:17.565Z,30.13
2023-05-02T04:36:47.147Z,31.27
2023-05-02T04:39:13.539Z,29.00
2023-05-02T04:41:39.984Z,29.43
2023-05-02T04:44:06.346Z,29.80
2023-05-02T04:46:32.749Z,30.70
2023-05-02T04:48:59.150Z,29.90
2023-05-02T04:51:25.456Z,31.03
2023-05-02T04:53:51.826Z,30.40
2023-05-02T04:56:18.194Z,31.13
2023-05-02T04:58:44.503Z,31.27
2023-05-02T05:01:11.040Z,29.87
2023-05-02T05:03:37.598Z,30.30
2023-05-02T05:06:04.332Z,29.90
2023-05-02T05:08:30.749Z,28.57
2023-05-02T05:10:57.332Z,27.63
2023-05-02T05:13:23.617Z,28.90
2023-05-02T05:15:50.006Z,29.63
2023-05-02T05:18:16.488Z,28.67
2023-05-02T05:20:42.802Z,28.83
2023-05-02T05:23:09.152Z,29.13
2023-05-02T05:25:35.484Z,30.13
2023-05-02T05:28:01.849Z,29.77
2023-05-02T05:30:28.689Z,29.60
2023-05-02T05:32:55.063Z,29.80
2023-05-02T05:35:21.569Z,30.30
2023-05-02T05:37:47.907Z,28.63
2023-05-02T05:40:14.292Z,29.50
2023-05-02T05:42:40.793Z,27.83
2023-05-02T05:45:08.697Z,29.13
2023-05-02T05:47:35.208Z,28.00
2023-05-02T05:50:01.898Z,29.03
2023-05-02T05:52:28.527Z,27.87
2023-05-02T05:54:58.126Z,27.63
2023-05-02T05:57:24.621Z,28.07
2023-05-02T05:59:51.830Z,27.70
2023-05-02T06:02:19.608Z,27.17
2023-05-02T06:04:48.988Z,27.60
2023-05-02T06:07:15.626Z,25.17
2023-05-02T06:09:41.958Z,27.83
2023-05-02T06:12:08.384Z,26.07
2023-05-02T06:14:34.841Z,25.03
2023-05-02T06:17:01.211Z,26.83
2023-05-02T06:19:27.565Z,26.93
2023-05-02T06:21:54.019Z,24.17
2023-05-02T06:24:20.504Z,23.90
2023-05-02T06:26:46.843Z,26.00
2023-05-02T06:29:13.634Z,22.50
2023-05-02T06:31:40.113Z,21.97
2023-05-02T06:34:06.605Z,21.23
2023-05-02T06:36:32.982Z,21.50
2023-05-02T06:38:59.317Z,17.77
2023-05-02T06:41:25.668Z,15.87
2023-05-02T06:43:52.038Z,16.30
2023-05-02T06:46:20.248Z,15.97
2023-05-02T06:48:46.618Z,17.60
2023-05-02T06:51:14.885Z,17.73
2023-05-02T06:53:41.565Z,17.57
2023-05-02T06:56:08.233Z,17.53
2023-05-02T06:58:34.598Z,18.47
2023-05-02T07:01:01.074Z,18.33
2023-05-02T07:03:29.705Z,18.10
2023-05-02T07:05:56.028Z,17.97
2023-05-02T07:08:23.822Z,18.10
2023-05-02T07:10:50.627Z,17.67
2023-05-02T07:13:17.045Z,16.77
2023-05-02T07:15:43.395Z,18.03
2023-05-02T07:18:09.813Z,18.23
2023-05-02T07:20:36.304Z,19.30
2023-05-02T07:23:02.661Z,18.80
2023-05-02T07:25:29.138Z,17.93
2023-05-02T07:27:55.468Z,18.43
2023-05-02T07:30:21.905Z,18.43
2023-05-02T07:32:48.238Z,18.20
2023-05-02T07:35:14.720Z,18.67
2023-05-02T07:37:41.595Z,19.20
2023-05-02T07:40:09.355Z,19.63
2023-05-02T07:42:36.249Z,18.17
2023-05-02T07:45:03.045Z,17.10
2023-05-02T07:47:30.213Z,15.90
2023-05-02T07:49:56.737Z,15.27
2023-05-02T07:52:23.112Z,13.93
2023-05-02T07:54:49.744Z,13.60
2023-05-02T07:57:16.128Z,13.53
2023-05-02T07:59:42.498Z,12.97
2023-05-02T08:02:08.875Z,12.87
2023-05-02T08:04:35.278Z,11.33
2023-05-02T08:07:01.634Z,10.47
2023-05-02T08:09:27.926Z,9.80
2023-05-02T08:11:54.315Z,8.90
2023-05-02T08:14:20.640Z,8.60
2023-05-02T08:16:47.271Z,8.93
2023-05-02T08:19:13.770Z,8.03
2023-05-02T08:21:40.302Z,7.40
2023-05-02T08:24:06.756Z,8.90
2023-05-02T08:26:33.515Z,8.73
2023-05-02T08:28:59.910Z,8.20
2023-05-02T08:31:26.354Z,9.27
2023-05-02T08:33:52.744Z,9.13
2023-05-02T08:36:19.732Z,8.80
2023-05-02T08:38:46.576Z,9.60
2023-05-02T08:41:17.795Z,9.33
2023-05-02T08:43:47.587Z,9.33
2023-05-02T08:46:16.600Z,9.97
2023-05-02T08:48:45.682Z,10.40
2023-05-02T08:51:14.233Z,10.23
2023-05-02T08:53:41.713Z,10.57
2023-05-02T08:56:09.125Z,9.87
2023-05-02T08:58:39.374Z,9.97
2023-05-02T09:01:13.905Z,9.67
2023-05-02T09:03:40.754Z,9.03
2023-05-02T09:06:18.117Z,9.67
2023-05-02T09:08:46.389Z,7.70
2023-05-02T09:11:13.356Z,8.17
2023-05-02T09:13:51.654Z,7.40
2023-05-02T09:16:22.462Z,8.30
2023-05-02T09:18:51.156Z,7.77
2023-05-02T09:21:21.289Z,7.97
2023-05-02T09:23:51.611Z,8.00
2023-05-02T09:26:31.847Z,7.97
2023-05-02T09:29:00.041Z,7.83
2023-05-02T09:31:49.670Z,7.97
2023-05-02T09:34:17.462Z,7.60
2023-05-02T09:36:45.808Z,7.70
2023-05-02T09:39:17.545Z,7.53
2023-05-02T09:41:45.540Z,7.03
2023-05-02T09:44:13.643Z,7.13
2023-05-02T09:46:42.215Z,7.67
2023-05-02T09:49:09.882Z,7.43
2023-05-02T09:51:36.331Z,7.73
2023-05-02T09:54:03.267Z,8.10
2023-05-02T09:56:29.828Z,8.00
2023-05-02T09:59:15.729Z,7.50
2023-05-02T10:01:42.919Z,6.53
2023-05-02T10:04:16.271Z,7.47
2023-05-02T10:06:47.119Z,7.50
2023-05-02T10:09:19.682Z,7.33
2023-05-02T10:11:51.927Z,8.07
2023-05-02T10:14:20.835Z,7.43
2023-05-02T10:16:55.584Z,7.33
2023-05-02T10:19:29.862Z,7.37
2023-05-02T10:21:58.003Z,7.73
2023-05-02T10:24:24.536Z,7.43
2023-05-02T10:26:54.576Z,6.90
2023-05-02T10:29:21.812Z,7.43
2023-05-02T10:31:49.749Z,7.63
2023-05-02T10:34:17.966Z,7.30
2023-05-02T10:36:44.429Z,7.43
2023-05-02T10:39:10.788Z,7.63
2023-05-02T10:41:39.096Z,8.07
2023-05-02T10:44:07.770Z,7.03
2023-05-02T10:46:37.248Z,7.10
2023-05-02T10:49:04.611Z,7.83
2023-05-02T10:51:34.136Z,6.53
2023-05-02T10:54:25.629Z,5.67
2023-05-02T10:57:05.425Z,6.67
2023-05-02T10:59:41.417Z,5.80
2023-05-02T11:02:27.746Z,6.30
2023-05-02T11:05:02.845Z,6.60
2023-05-02T11:07:31.250Z,6.50
2023-05-02T11:10:16.082Z,6.43
2023-05-02T11:12:54.629Z,5.83
2023-05-02T11:15:27.678Z,6.70
2023-05-02T11:18:06.333Z,6.90
2023-05-02T11:20:33.881Z,7.57
2023-05-02T11:23:27.281Z,7.80
2023-05-02T11:25:55.844Z,7.00
2023-05-02T11:28:34.214Z,6.33
2023-05-02T11:31:00.588Z,6.37
2023-05-02T11:33:28.423Z,6.73
2023-05-02T11:35:56.862Z,6.10
2023-05-02T11:38:23.622Z,6.27
2023-05-02T11:40:51.841Z,7.00
2023-05-02T11:43:21.388Z,5.87
2023-05-02T11:45:48.492Z,4.57
2023-05-02T11:48:18.560Z,3.40
2023-05-02T11:50:50.967Z,3.10
2023-05-02T11:53:22.198Z,3.73
2023-05-02T11:55:54.148Z,3.43
2023-05-02T11:58:25.528Z,3.93
2023-05-02T12:00:53.092Z,3.63
2023-05-02T12:03:30.977Z,3.33
2023-05-02T12:06:11.086Z,2.90
2023-05-02T12:08:38.862Z,2.47
2023-05-02T12:11:06.356Z,2.53
2023-05-02T12:13:32.896Z,2.40
2023-05-02T12:15:59.737Z,2.33
2023-05-02T12:18:27.115Z,2.73
2023-05-02T12:20:55.422Z,2.70
2023-05-02T12:23:23.435Z,2.00
2023-05-02T12:25:50.203Z,2.07
2023-05-02T12:28:20.601Z,2.33
2023-05-02T12:30:48.856Z,2.00
2023-05-02T12:33:16.970Z,1.93
2023-05-02T12:35:45.445Z,1.70
2023-05-02T12:38:15.892Z,1.40
2023-05-02T12:40:50.658Z,2.10
2023-05-02T12:43:17.689Z,2.10
2023-05-02T12:45:44.093Z,1.90
2023-05-02T12:48:26.711Z,2.60
2023-05-02T12:50:54.730Z,2.50
2023-05-02T12:53:43.759Z,2.33
2023-05-02T12:56:11.695Z,2.93
2023-05-02T12:58:42.909Z,2.57
2023-05-02T13:01:10.462Z,2.53
2023-05-02T13:03:37.044Z,2.87
2023-05-02T13:06:04.134Z,3.23
2023-05-02T13:08:33.032Z,3.40
2023-05-02T13:10:59.586Z,3.83
2023-05-02T13:13:26.037Z,4.20
2023-05-02T13:15:52.407Z,4.27
2023-05-02T13:18:18.721Z,5.63
2023-05-02T13:20:45.146Z,5.40
2023-05-02T13:23:11.561Z,5.40
2023-05-02T13:25:38.109Z,5.07
2023-05-02T13:28:04.449Z,5.80
2023-05-02T13:30:30.841Z,5.60
2023-05-02T13:32:58.804Z,5.80
2023-05-02T13:35:25.454Z,5.83
2023-05-02T13:37:51.792Z,5.80
2023-05-02T13:40:18.193Z,6.10
2023-05-02T13:42:44.749Z,5.33
2023-05-02T13:45:11.512Z,5.53
2023-05-02T13:47:39.395Z,5.23
2023-05-02T13:50:07.356Z,4.60
2023-05-02T13:52:33.750Z,4.53
2023-05-02T13:55:00.177Z,4.83
2023-05-02T13:57:26.546Z,4.43
2023-05-02T13:59:52.926Z,5.00
2023-05-02T14:02:19.905Z,5.40
2023-05-02T14:04:46.224Z,4.70
2023-05-02T14:07:12.518Z,5.50
2023-05-02T14:09:39.080Z,4.60
2023-05-02T14:12:06.330Z,5.00
2023-05-02T14:14:32.731Z,4.50
2023-05-02T14:16:59.694Z,4.60
2023-05-02T14:19:26.039Z,4.67
2023-05-02T14:21:52.423Z,4.93
2023-05-02T14:24:19.286Z,4.73
2023-05-02T14:26:45.835Z,4.73
2023-05-02T14:29:12.201Z,4.70
2023-05-02T14:31:38.673Z,5.20
2023-05-02T14:34:08.176Z,5.03
2023-05-02T14:36:35.268Z,4.93
2023-05-02T14:39:01.643Z,5.43
2023-05-02T14:41:28.050Z,5.30
2023-05-02T14:43:54.494Z,5.47
2023-05-02T14:46:20.987Z,5.13
2023-05-02T14:48:47.457Z,5.23
2023-05-02T14:51:13.744Z,5.00
2023-05-02T14:53:40.103Z,5.53
2023-05-02T14:56:12.098Z,5.43
2023-05-02T14:58:38.554Z,4.90
2023-05-02T15:01:05.013Z,5.20
2023-05-02T15:03:31.455Z,5.13
2023-05-02T15:05:57.890Z,4.60
2023-05-02T15:08:25.119Z,4.30
2023-05-02T15:10:51.416Z,4.10
2023-05-02T15:13:18.047Z,4.50
2023-05-02T15:15:46.800Z,4.33
2023-05-02T15:18:15.728Z,3.57
2023-05-02T15:20:42.478Z,3.90
2023-05-02T15:23:08.777Z,3.37
2023-05-02T15:25:35.078Z,3.40
2023-05-02T15:28:02.983Z,3.10
2023-05-02T15:30:29.352Z,2.73
2023-05-02T15:32:55.770Z,3.17
2023-05-02T15:35:22.129Z,3.13
2023-05-02T15:37:48.465Z,2.80
2023-05-02T15:40:14.827Z,3.30
2023-05-02T15:42:41.518Z,3.60
2023-05-02T15:45:08.497Z,3.53
2023-05-02T15:47:34.846Z,3.43
2023-05-02T15:50:01.680Z,3.83
2023-05-02T15:52:29.318Z,3.70
2023-05-02T15:54:56.076Z,3.93
2023-05-02T15:57:22.865Z,3.73
2023-05-02T15:59:49.233Z,3.77
2023-05-02T16:02:15.557Z,3.93
2023-05-02T16:04:43.021Z,4.43
2023-05-02T16:07:09.996Z,4.03
2023-05-02T16:09:36.378Z,4.03
2023-05-02T16:12:05.175Z,4.47
2023-05-02T16:14:31.473Z,4.40
2023-05-02T16:17:00.133Z,4.40
2023-05-02T16:19:26.487Z,3.77
2023-05-02T16:21:52.861Z,4.30
2023-05-02T16:24:19.245Z,4.13
2023-05-02T16:26:46.484Z,4.47
2023-05-02T16:29:12.817Z,4.37
2023-05-02T16:31:39.195Z,4.80
2023-05-02T16:34:05.562Z,5.17
2023-05-02T16:36:31.889Z,5.17
2023-05-02T16:38:58.332Z,4.97
2023-05-02T16:41:24.678Z,5.10
2023-05-02T16:43:51.051Z,4.97
2023-05-02T16:46:17.924Z,4.80
2023-05-02T16:48:44.266Z,4.87
2023-05-02T16:51:10.616Z,4.60
2023-05-02T16:53:36.934Z,4.87
2023-05-02T16:56:03.358Z,4.57
2023-05-02T16:58:29.889Z,4.70
2023-05-02T17:00:56.660Z,4.97
2023-05-02T17:03:23.174Z,4.70
2023-05-02T17:05:49.520Z,5.10
2023-05-02T17:08:16.836Z,4.90
2023-05-02T17:10:48.095Z,4.67
2023-05-02T17:13:14.506Z,4.87
2023-05-02T17:15:41.045Z,4.70
2023-05-02T17:18:07.479Z,4.47
2023-05-02T17:20:34.133Z,4.50
2023-05-02T17:23:00.656Z,4.43
2023-05-02T17:25:27.033Z,4.60
2023-05-02T17:27:53.663Z,4.67
2023-05-02T17:30:20.379Z,5.00
2023-05-02T17:32:46.801Z,4.80
2023-05-02T17:35:14.267Z,4.47
2023-05-02T17:37:40.859Z,4.27
2023-05-02T17:40:07.803Z,4.60
2023-05-02T17:42:34.208Z,4.60
2023-05-02T17:45:00.547Z,4.87
2023-05-02T17:47:26.847Z,4.37
2023-05-02T17:49:54.059Z,5.37
2023-05-02T17:52:21.277Z,5.20
2023-05-02T17:54:47.597Z,5.80
2023-05-02T17:57:14.838Z,5.20
2023-05-02T17:59:41.498Z,4.90
2023-05-02T18:02:10.094Z,5.00
2023-05-02T18:04:36.785Z,5.13
2023-05-02T18:07:05.063Z,5.13
2023-05-02T18:09:32.418Z,4.93
2023-05-02T18:12:03.563Z,5.70
2023-05-02T18:14:29.928Z,5.27
2023-05-02T18:16:56.374Z,5.07
2023-05-02T18:19:23.139Z,4.73
2023-05-02T18:21:49.502Z,5.13
2023-05-02T18:24:15.984Z,5.07
2023-05-02T18:26:42.339Z,4.63
2023-05-02T18:29:09.208Z,5.13
2023-05-02T18:31:37.186Z,5.10
2023-05-02T18:34:03.628Z,3.97
2023-05-02T18:36:29.928Z,4.10
2023-05-02T18:38:56.317Z,4.20
2023-05-02T18:41:23.030Z,4.17
2023-05-02T18:43:49.471Z,4.10
2023-05-02T18:46:15.860Z,4.13
2023-05-02T18:48:42.500Z,3.73
2023-05-02T18:51:09.504Z,4.13
2023-05-02T18:53:36.134Z,3.53
2023-05-02T18:56:02.577Z,3.80
2023-05-02T18:58:28.942Z,3.80
2023-05-02T19:00:55.342Z,4.23
2023-05-02T19:03:22.065Z,3.70
2023-05-02T19:05:50.423Z,3.90
2023-05-02T19:08:16.850Z,4.00
2023-05-02T19:10:43.200Z,4.13
2023-05-02T19:13:09.676Z,3.77
2023-05-02T19:15:36.115Z,4.33
2023-05-02T19:18:02.784Z,4.33
2023-05-02T19:20:30.142Z,4.80
2023-05-02T19:23:10.926Z,4.60
2023-05-02T19:25:44.372Z,4.30
2023-05-02T19:28:12.112Z,4.40
2023-05-02T19:30:42.208Z,4.07
2023-05-02T19:33:08.668Z,3.53
2023-05-02T19:35:37.787Z,4.70
2023-05-02T19:38:04.174Z,4.10
2023-05-02T19:40:31.144Z,3.97
2023-05-02T19:42:57.479Z,4.80
2023-05-02T19:45:24.016Z,3.50
2023-05-02T19:47:50.472Z,3.93
2023-05-02T19:50:16.832Z,3.57
2023-05-02T19:52:44.345Z,3.90
2023-05-02T19:55:10.792Z,4.33
2023-05-02T19:57:37.362Z,4.20
2023-05-02T20:00:04.855Z,3.93
2023-05-02T20:02:31.366Z,3.60
2023-05-02T20:04:57.728Z,3.50
2023-05-02T20:07:24.188Z,3.40
2023-05-02T20:09:50.533Z,3.27
2023-05-02T20:12:16.851Z,3.53
2023-05-02T20:14:43.207Z,3.50
2023-05-02T20:17:09.677Z,2.80
2023-05-02T20:19:35.992Z,3.50
2023-05-02T20:22:02.332Z,3.60
2023-05-02T20:24:28.673Z,3.03
2023-05-02T20:26:55.006Z,3.27
2023-05-02T20:29:21.355Z,3.00
2023-05-02T20:31:47.692Z,3.10
2023-05-02T20:34:14.110Z,3.63
2023-05-02T20:36:40.535Z,3.77
2023-05-02T20:39:09.132Z,3.40
2023-05-02T20:41:36.463Z,3.70
2023-05-02T20:44:03.632Z,3.43
2023-05-02T20:46:29.982Z,3.33
2023-05-02T20:48:56.798Z,3.40
2023-05-02T20:51:23.121Z,3.20
2023-05-02T20:53:49.500Z,3.17
2023-05-02T20:56:15.916Z,3.37
2023-05-02T20:58:44.653Z,3.00
2023-05-02T21:01:11.471Z,3.03
2023-05-02T21:03:40.633Z,3.30
2023-05-02T21:06:07.227Z,3.40
2023-05-02T21:08:33.602Z,3.17
2023-05-02T21:10:59.923Z,3.30
2023-05-02T21:13:26.788Z,3.17
2023-05-02T21:15:53.173Z,3.50
2023-05-02T21:18:20.735Z,3.40
2023-05-02T21:20:48.757Z,3.47
2023-05-02T21:23:15.103Z,3.30
2023-05-02T21:25:41.420Z,4.03
2023-05-02T21:28:07.725Z,3.93
2023-05-02T21:30:34.848Z,3.30
2023-05-02T21:33:01.299Z,3.40
2023-05-02T21:35:28.640Z,4.30
2023-05-02T21:37:54.946Z,3.43
2023-05-02T21:40:21.270Z,3.40
2023-05-02T21:42:47.588Z,3.63
2023-05-02T21:45:14.008Z,3.50
2023-05-02T21:47:40.406Z,3.50
2023-05-02T21:50:07.214Z,3.63
2023-05-02T21:52:33.559Z,3.50
2023-05-02T21:54:59.937Z,3.67
2023-05-02T21:57:26.571Z,3.90
2023-05-02T21:59:52.881Z,3.50
2023-05-02T22:02:19.324Z,3.73
2023-05-02T22:04:48.012Z,3.60
2023-05-02T22:07:15.084Z,3.47
2023-05-02T22:09:41.558Z,3.93
2023-05-02T22:12:08.021Z,3.57
2023-05-02T22:14:44.557Z,3.47
2023-05-02T22:17:18.520Z,3.70
2023-05-02T22:19:49.554Z,3.33
2023-05-02T22:22:15.830Z,3.40
2023-05-02T22:24:42.127Z,3.57
2023-05-02T22:27:08.470Z,3.60
2023-05-02T22:29:34.819Z,3.30
2023-05-02T22:32:01.273Z,3.40
2023-05-02T22:34:27.630Z,3.77
2023-05-02T22:36:53.971Z,3.40
2023-05-02T22:39:20.475Z,3.47
2023-05-02T22:41:46.789Z,3.70
2023-05-02T22:44:13.111Z,3.43
2023-05-02T22:46:39.444Z,4.00
2023-05-02T22:49:10.167Z,3.50
2023-05-02T22:51:42.446Z,4.00
2023-05-02T22:54:10.126Z,3.70
2023-05-02T22:56:36.447Z,3.80
2023-05-02T22:59:02.758Z,4.00
2023-05-02T23:01:29.233Z,3.80
2023-05-02T23:03:58.049Z,3.90
2023-05-02T23:06:24.515Z,3.70
2023-05-02T23:08:50.858Z,3.83
2023-05-02T23:11:17.201Z,3.70
2023-05-02T23:13:43.624Z,4.27
2023-05-02T23:16:09.999Z,3.77
2023-05-02T23:18:36.432Z,4.03
2023-05-02T23:21:04.247Z,3.70
2023-05-02T23:23:32.699Z,4.30
2023-05-02T23:25:59.078Z,3.90
2023-05-02T23:28:25.842Z,3.83
2023-05-02T23:30:53.494Z,4.10
2023-05-02T23:33:19.903Z,4.00
2023-05-02T23:35:46.636Z,4.00
2023-05-02T23:38:13.093Z,3.73
2023-05-02T23:40:39.409Z,4.20
2023-05-02T23:43:07.265Z,3.97
2023-05-02T23:45:33.588Z,4.13
2023-05-02T23:47:59.945Z,3.80
2023-05-02T23:50:26.625Z,4.13
2023-05-02T23:52:53.104Z,4.00
2023-05-02T23:55:19.399Z,4.53
2023-05-02T23:57:46.246Z,4.33
